Time;durP1;ratioP1;P1;durP2;ratioP2;P2;SDS_P1;SDS_P2;PMS_P1;PMS_P2;Temp;Humidity;BMP_temperature;BMP_pressure;BME280_temperature;BME280_humidity;BME280_pressure;Samples;Min_cycle;Max_cycle;Signal;HPM_P1;HPM_P2
2023/01/17 00:02:10;;;;;;;2.15;0.70;;;;;;;6.40;61.95;98254.19;4957579;28;113629;-72
2023/01/17 00:10:22;;;;;;;3.15;0.98;;;;;;;6.51;62.69;98260.47;4962566;28;115144;-70
2023/01/17 00:12:53;;;;;;;4.53;1.10;;;;;;;6.58;62.43;98256.47;4961072;28;114201;-70
2023/01/17 00:15:22;;;;;;;5.40;1.13;;;;;;;6.65;62.45;98268.25;4963793;28;123529;-69
2023/01/17 00:17:49;;;;;;;7.82;0.93;;;;;;;6.70;62.85;98266.13;4961790;28;124791;-69
2023/01/17 00:26:04;;;;;;;5.28;1.08;;;;;;;6.86;62.89;98275.56;4962995;28;123230;-70
2023/01/17 01:36:01;;;;;;;0.52;0.50;;;;;;;4.90;61.64;98434.59;4965553;28;114568;-71
2023/01/17 01:38:28;;;;;;;0.60;0.50;;;;;;;4.86;62.25;98426.94;4963607;28;113652;-71
2023/01/17 01:40:55;;;;;;;0.40;0.40;;;;;;;4.86;62.33;98439.22;4964176;28;127299;-71
2023/01/17 01:43:45;;;;;;;0.57;0.40;;;;;;;4.86;62.38;98447.09;4951233;28;124426;-71
2023/01/17 01:46:22;;;;;;;0.65;0.52;;;;;;;4.86;62.11;98442.69;4957252;28;114488;-71
2023/01/17 01:48:54;;;;;;;1.55;0.50;;;;;;;4.90;62.47;98452.97;4951798;28;114776;-71
2023/01/17 01:51:26;;;;;;;0.68;0.50;;;;;;;4.91;62.49;98465.16;4963733;28;125705;-71
2023/01/17 01:53:59;;;;;;;2.00;0.47;;;;;;;4.92;62.26;98466.84;4966443;28;124010;-71
2023/01/17 01:56:29;;;;;;;1.52;0.50;;;;;;;4.95;62.51;98466.66;4964829;28;114285;-70
2023/01/17 01:58:59;;;;;;;1.83;0.50;;;;;;;4.96;62.58;98470.97;4964022;28;112947;-71
2023/01/17 02:01:26;;;;;;;0.65;0.50;;;;;;;4.99;62.35;98478.63;4977524;28;123941;-71
2023/01/17 02:03:53;;;;;;;1.60;0.70;;;;;;;4.99;62.41;98478.63;4965913;28;123935;-71
2023/01/17 02:06:28;;;;;;;0.90;0.70;;;;;;;5.00;62.50;98490.84;4961976;28;114092;-71
2023/01/17 02:08:59;;;;;;;0.90;0.63;;;;;;;5.02;62.25;98488.97;4966105;28;113978;-71
2023/01/17 02:11:26;;;;;;;1.23;0.88;;;;;;;5.05;62.46;98494.03;4963448;28;125008;-70
2023/01/17 02:13:53;;;;;;;2.20;0.90;;;;;;;5.06;62.41;98500.94;4966925;28;125247;-71
2023/01/17 02:16:36;;;;;;;1.45;0.70;;;;;;;5.07;62.67;98497.41;4968722;28;115177;-71
2023/01/17 02:19:50;;;;;;;1.95;0.90;;;;;;;5.09;62.31;98508.66;4949660;28;115393;-71
2023/01/17 02:22:43;;;;;;;2.15;0.80;;;;;;;5.11;62.31;98509.41;4944898;28;124978;-71
2023/01/17 02:25:22;;;;;;;1.52;1.00;;;;;;;5.12;62.40;98521.56;4956305;28;123095;-71
2023/01/17 02:28:36;;;;;;;2.33;1.00;;;;;;;5.14;62.56;98524.97;4964544;28;114373;-71
2023/01/17 02:31:13;;;;;;;1.70;0.90;;;;;;;5.15;62.36;98520.56;4929485;28;113116;-71
2023/01/17 02:34:03;;;;;;;2.65;0.82;;;;;;;5.17;62.24;98521.31;4955748;28;125906;-71
2023/01/17 02:36:35;;;;;;;2.53;1.00;;;;;;;5.20;62.29;98524.59;4940377;28;125653;-71
2023/01/17 02:39:14;;;;;;;4.20;1.20;;;;;;;5.23;62.63;98521.75;4966506;28;114666;-71
2023/01/17 02:41:50;;;;;;;2.45;1.30;;;;;;;5.24;62.45;98520.84;4964462;28;114265;-71
2023/01/17 02:44:19;;;;;;;2.80;1.40;;;;;;;5.29;62.42;98522.31;4967758;28;123236;-71
2023/01/17 02:46:55;;;;;;;3.42;1.50;;;;;;;5.33;62.56;98513.31;4968287;28;122737;-71
2023/01/17 02:49:29;;;;;;;1.88;1.35;;;;;;;5.36;62.47;98513.16;4959279;28;114850;-71
2023/01/17 02:52:24;;;;;;;3.40;1.30;;;;;;;5.38;62.63;98521.78;4968915;28;113849;-71
2023/01/17 02:55:15;;;;;;;5.15;1.40;;;;;;;5.41;62.66;98516.34;4953351;28;123075;-71
2023/01/17 02:58:14;;;;;;;2.70;1.42;;;;;;;5.42;62.35;98512.75;4957939;28;124349;-70
2023/01/17 03:01:05;;;;;;;2.58;1.45;;;;;;;5.43;62.49;98527.59;4973807;28;116214;-71
2023/01/17 03:03:50;;;;;;;4.00;1.55;;;;;;;5.44;62.42;98532.75;4974770;28;113855;-71
2023/01/17 03:06:32;;;;;;;4.82;1.90;;;;;;;5.47;62.52;98536.97;4962894;28;122237;-71
2023/01/17 03:09:01;;;;;;;2.05;1.77;;;;;;;5.49;62.58;98545.59;4962556;28;124994;-71
2023/01/17 03:11:28;;;;;;;4.50;1.92;;;;;;;5.52;62.39;98550.66;4965298;28;115799;-70
2023/01/17 03:13:58;;;;;;;3.92;1.95;;;;;;;5.54;62.47;98548.78;4968733;28;115920;-70
2023/01/17 03:16:30;;;;;;;5.63;1.88;;;;;;;5.57;62.55;98553.81;4967253;28;125084;-71
2023/01/17 03:18:57;;;;;;;5.07;1.90;;;;;;;5.60;62.55;98552.81;4968486;28;124212;-71
2023/01/17 03:21:25;;;;;;;2.42;2.00;;;;;;;5.60;62.79;98553.66;4959584;28;97163;-70
2023/01/17 03:23:52;;;;;;;4.55;2.05;;;;;;;5.63;62.38;98547.34;4956282;28;113423;-71
2023/01/17 03:26:19;;;;;;;3.65;1.95;;;;;;;5.65;62.59;98556.84;4967507;28;124449;-71
2023/01/17 03:28:47;;;;;;;4.53;2.00;;;;;;;5.69;62.52;98561.88;4963330;28;125656;-70
2023/01/17 03:31:15;;;;;;;3.30;1.88;;;;;;;5.71;62.17;98562.63;4965804;28;114099;-70
2023/01/17 03:33:42;;;;;;;2.95;1.70;;;;;;;5.71;62.30;98560.00;4965122;28;113441;-70
2023/01/17 03:36:10;;;;;;;2.70;1.67;;;;;;;5.73;62.09;98566.03;4965507;28;126441;-70
2023/01/17 03:38:37;;;;;;;4.78;1.75;;;;;;;5.72;62.13;98574.84;4965798;28;123341;-71
2023/01/17 03:41:05;;;;;;;3.20;1.70;;;;;;;5.71;62.04;98575.75;4971116;28;114979;-71
2023/01/17 03:43:32;;;;;;;2.55;1.40;;;;;;;5.69;62.08;98568.00;4963376;28;113969;-71
2023/01/17 03:46:06;;;;;;;3.60;1.45;;;;;;;5.66;62.07;98574.25;4963682;28;123583;-70
2023/01/17 03:48:33;;;;;;;2.65;1.10;;;;;;;5.64;62.09;98572.69;4948263;28;123231;-70
2023/01/17 03:51:00;;;;;;;2.30;1.10;;;;;;;5.62;62.11;98572.78;4967982;28;114400;-71
2023/01/17 03:53:27;;;;;;;2.25;1.08;;;;;;;5.59;62.10;98578.19;4965841;28;113945;-70
2023/01/17 03:55:54;;;;;;;2.15;1.00;;;;;;;5.56;62.03;98578.41;4949103;28;123414;-70
2023/01/17 03:58:21;;;;;;;1.67;0.95;;;;;;;5.54;62.05;98580.28;4968076;28;124392;-70
2023/01/17 04:00:48;;;;;;;1.65;0.90;;;;;;;5.52;62.06;98576.91;4950301;28;116798;-71
2023/01/17 04:03:16;;;;;;;1.67;1.08;;;;;;;5.50;62.15;98586.66;4962433;28;116317;-70
2023/01/17 04:05:43;;;;;;;2.17;0.90;;;;;;;5.49;62.17;98592.84;4968969;28;124259;-71
2023/01/17 04:08:10;;;;;;;3.03;1.10;;;;;;;5.49;62.07;98598.09;4966988;28;123618;-71
2023/01/17 04:10:37;;;;;;;2.70;0.90;;;;;;;5.46;62.09;98598.25;4964899;28;114003;-71
2023/01/17 04:13:04;;;;;;;4.88;1.00;;;;;;;5.45;61.79;98596.59;4969085;28;114384;-71
2023/01/17 04:15:32;;;;;;;3.95;0.90;;;;;;;5.42;62.16;98602.00;4955209;28;123621;-71
2023/01/17 04:17:59;;;;;;;1.73;0.80;;;;;;;5.39;62.08;98602.22;4962956;28;123821;-71
2023/01/17 04:20:35;;;;;;;2.25;0.90;;;;;;;5.36;61.98;98602.38;4970322;28;114437;-71
2023/01/17 04:23:02;;;;;;;;;;;;;;;5.34;62.10;98604.25;4968143;28;115131;-70
2023/01/17 04:25:30;;;;;;;4.30;0.80;;;;;;;5.33;61.86;98607.81;4959854;28;124113;-71
2023/01/17 04:27:58;;;;;;;1.77;0.70;;;;;;;5.31;61.88;98604.44;4963284;28;125576;-71
2023/01/17 04:30:26;;;;;;;3.00;0.80;;;;;;;5.30;61.90;98608.00;4965227;28;114135;-71
2023/01/17 04:32:54;;;;;;;2.13;0.80;;;;;;;5.30;62.32;98602.75;4963854;28;113902;-71
2023/01/17 04:35:21;;;;;;;5.68;1.00;;;;;;;5.29;62.21;98601.06;4966103;28;124428;-71
2023/01/17 04:37:49;;;;;;;1.92;0.75;;;;;;;5.30;62.15;98613.25;4966541;28;123356;-71
2023/01/17 04:40:17;;;;;;;2.35;0.60;;;;;;;5.29;62.05;98608.94;4962655;28;119073;-71
2023/01/17 04:42:45;;;;;;;2.00;0.80;;;;;;;5.29;62.06;98616.81;4947402;28;118514;-70
2023/01/17 04:45:13;;;;;;;2.55;1.08;;;;;;;5.28;62.36;98615.13;4966969;28;124603;-71
2023/01/17 04:47:40;;;;;;;2.55;0.90;;;;;;;5.31;62.46;98609.69;4958881;28;123793;-71
2023/01/17 04:50:08;;;;;;;1.73;0.90;;;;;;;5.32;62.18;98621.88;4963837;28;120830;-71
2023/01/17 04:52:35;;;;;;;2.38;0.75;;;;;;;5.32;62.34;98616.63;4965727;28;120167;-71
2023/01/17 04:55:02;;;;;;;2.70;0.95;;;;;;;5.34;62.24;98620.00;4975111;28;122700;-71
2023/01/17 04:57:30;;;;;;;3.03;0.82;;;;;;;5.34;62.47;98620.00;4965371;28;122809;-71
2023/01/17 04:59:57;;;;;;;2.30;1.05;;;;;;;5.38;62.29;98605.75;4967534;28;117444;-70
2023/01/17 05:02:24;;;;;;;4.63;1.08;;;;;;;5.40;62.32;98606.50;4962445;28;118568;-71
2023/01/17 05:04:51;;;;;;;2.65;0.90;;;;;;;5.42;62.06;98602.84;4959798;28;124123;-71
2023/01/17 05:07:18;;;;;;;1.70;0.80;;;;;;;5.43;62.49;98608.97;4951819;28;123822;-71
2023/01/17 05:09:46;;;;;;;1.98;0.93;;;;;;;5.44;62.05;98605.38;4946562;28;118424;-71
2023/01/17 05:12:13;;;;;;;3.15;1.27;;;;;;;5.41;62.09;98605.59;4962619;28;119721;-71
2023/01/17 05:14:40;;;;;;;5.43;0.88;;;;;;;5.39;61.79;98602.22;4961948;28;124352;-71
2023/01/17 05:17:09;;;;;;;2.80;1.10;;;;;;;5.37;61.69;98604.06;4960374;28;124287;-71
2023/01/17 05:19:37;;;;;;;3.65;1.30;;;;;;;5.35;61.93;98603.31;4960449;28;119066;-71
2023/01/17 05:22:13;;;;;;;2.47;1.00;;;;;;;5.33;61.98;98618.31;4946696;28;117942;-71
2023/01/17 05:24:42;;;;;;;2.35;1.30;;;;;;;5.30;61.60;98623.75;4961926;28;125208;-71
2023/01/17 05:27:10;;;;;;;3.95;1.48;;;;;;;5.25;62.03;98622.25;4957073;28;122835;-71
2023/01/17 05:29:38;;;;;;;2.90;1.23;;;;;;;5.24;61.66;98623.19;4962496;28;119197;-71
2023/01/17 05:32:05;;;;;;;5.65;1.48;;;;;;;5.22;61.97;98632.94;4964977;28;118834;-71
2023/01/17 05:34:33;;;;;;;3.17;1.85;;;;;;;5.23;61.64;98645.09;4964342;28;125673;-71
2023/01/17 05:37:01;;;;;;;3.63;1.60;;;;;;;5.22;61.77;98648.66;4964639;28;123590;-71
2023/01/17 05:39:29;;;;;;;5.07;1.50;;;;;;;5.23;61.91;98655.59;4957320;28;121813;-71
2023/01/17 05:41:58;;;;;;;4.50;1.67;;;;;;;5.22;62.06;98661.78;4964428;28;120485;-71
2023/01/17 05:44:26;;;;;;;4.55;1.70;;;;;;;5.23;61.94;98657.38;4953573;28;123954;-71
2023/01/17 05:46:54;;;;;;;5.05;1.90;;;;;;;5.23;62.26;98655.59;4960880;28;124654;-71
2023/01/17 05:49:22;;;;;;;6.43;2.03;;;;;;;5.24;61.73;98657.28;4964318;28;119400;-70
2023/01/17 05:51:49;;;;;;;7.53;2.17;;;;;;;5.24;61.84;98654.66;4968364;28;118945;-71
2023/01/17 05:54:17;;;;;;;4.18;1.92;;;;;;;5.25;61.84;98652.88;4963124;28;124770;-71
2023/01/17 05:56:44;;;;;;;4.43;2.03;;;;;;;5.24;62.02;98652.03;4960419;28;123772;-71
2023/01/17 05:59:11;;;;;;;4.05;2.08;;;;;;;5.25;61.79;98642.38;4963644;28;118385;-71
2023/01/17 06:01:40;;;;;;;8.27;2.17;;;;;;;5.24;61.73;98652.03;4958781;28;119757;-71
2023/01/17 06:04:07;;;;;;;6.30;2.83;;;;;;;5.21;62.02;98644.34;4963134;28;123727;-71
2023/01/17 06:06:34;;;;;;;6.82;3.45;;;;;;;5.19;61.73;98648.84;4928936;28;125030;-71
2023/01/17 06:09:01;;;;;;;9.43;3.90;;;;;;;5.17;61.98;98650.72;4965110;28;120234;-71
2023/01/17 06:11:29;;;;;;;9.75;4.20;;;;;;;5.15;61.75;98657.81;4953803;28;118978;-71
2023/01/17 06:13:56;;;;;;;10.00;4.50;;;;;;;5.12;61.98;98652.75;4961208;28;124610;-71
2023/01/17 06:16:23;;;;;;;8.23;4.30;;;;;;;5.10;61.83;98654.63;4955122;28;123834;-71
2023/01/17 06:18:50;;;;;;;11.10;4.65;;;;;;;5.07;61.75;98654.81;4951931;28;119579;-71
2023/01/17 06:21:18;;;;;;;8.38;4.75;;;;;;;5.05;62.06;98654.06;4954088;28;119015;-71
2023/01/17 06:23:45;;;;;;;13.15;5.38;;;;;;;5.04;61.81;98654.97;4949573;28;124032;-71
2023/01/17 06:26:12;;;;;;;10.52;4.85;;;;;;;5.02;61.45;98651.59;4955700;28;124711;-71
2023/01/17 06:28:39;;;;;;;10.77;4.90;;;;;;;5.00;61.74;98648.22;4935666;28;119173;-70
2023/01/17 06:31:07;;;;;;;8.55;4.45;;;;;;;4.99;61.97;98651.75;4963552;28;119391;-71
2023/01/17 06:33:35;;;;;;;10.70;4.65;;;;;;;4.97;61.95;98653.63;4965262;28;124069;-71
2023/01/17 06:36:02;;;;;;;10.38;4.90;;;;;;;4.97;61.89;98658.88;4963253;28;125607;-71
2023/01/17 06:38:29;;;;;;;10.48;5.15;;;;;;;4.97;61.84;98656.25;4957432;28;120254;-70
2023/01/17 06:40:59;;;;;;;10.40;5.07;;;;;;;4.97;61.82;98653.63;4960750;28;120099;-71
2023/01/17 06:43:31;;;;;;;12.48;5.10;;;;;;;4.95;62.02;98660.75;4961650;28;125210;-71
2023/01/17 06:45:59;;;;;;;12.77;5.20;;;;;;;4.95;61.84;98666.00;4945258;28;124522;-71
2023/01/17 06:48:26;;;;;;;11.27;5.43;;;;;;;4.95;62.03;98663.38;4962898;28;119151;-71
2023/01/17 06:50:55;;;;;;;10.70;5.68;;;;;;;4.95;62.09;98666.00;4962629;28;118840;-71
2023/01/17 06:53:22;;;;;;;12.15;5.95;;;;;;;4.95;61.91;98666.00;4963011;28;124564;-71
2023/01/17 06:55:51;;;;;;;12.27;5.72;;;;;;;4.94;62.02;98664.31;4957428;28;124325;-73
2023/01/17 06:58:18;;;;;;;13.32;5.88;;;;;;;4.92;61.83;98668.81;4961510;28;119347;-71
2023/01/17 07:00:45;;;;;;;11.82;5.70;;;;;;;4.91;61.82;98667.09;4963875;28;118958;-71
2023/01/17 07:03:24;;;;;;;12.70;6.40;;;;;;;4.90;62.15;98683.75;4960629;28;125942;-72
2023/01/17 07:05:51;;;;;;;12.73;5.72;;;;;;;4.87;61.91;98675.13;4961439;28;123825;-71
2023/01/17 07:08:19;;;;;;;11.32;5.93;;;;;;;4.86;61.92;98683.97;4959682;28;119399;-71
2023/01/17 07:10:47;;;;;;;13.70;6.15;;;;;;;4.84;62.01;98680.56;4957328;28;118833;-71
2023/01/17 07:13:14;;;;;;;11.48;6.30;;;;;;;4.82;62.00;98682.44;4960999;28;124622;-71
2023/01/17 07:15:41;;;;;;;12.13;6.72;;;;;;;4.83;61.84;98676.25;4960665;28;123940;-71
2023/01/17 07:18:08;;;;;;;13.75;6.65;;;;;;;4.83;62.02;98681.50;4960407;28;120015;-72
2023/01/17 07:20:37;;;;;;;11.25;6.45;;;;;;;4.83;62.06;98678.88;4960794;28;118999;-71
2023/01/17 07:23:04;;;;;;;16.95;6.40;;;;;;;4.81;62.09;98674.66;4961898;28;124274;-71
2023/01/17 07:25:32;;;;;;;11.77;4.03;;;;;;;4.80;61.92;98679.06;4960707;28;123278;-72
2023/01/17 07:27:59;;;;;;;5.32;3.78;;;;;;;4.79;61.82;98682.59;4947969;28;119699;-71
2023/01/17 07:30:26;;;;;;;10.45;3.83;;;;;;;4.78;62.00;98686.16;4965287;28;118302;-71
2023/01/17 07:32:54;;;;;;;7.57;3.83;;;;;;;4.77;61.95;98681.84;4965091;28;124772;-71
2023/01/17 07:35:22;;;;;;;7.10;3.78;;;;;;;4.76;61.74;98693.25;4961418;28;123800;-71
2023/01/17 07:37:50;;;;;;;9.95;4.15;;;;;;;4.77;61.93;98687.09;4962502;28;119631;-70
2023/01/17 07:40:18;;;;;;;9.93;3.78;;;;;;;4.76;62.01;98688.00;4962324;28;118663;-69
2023/01/17 07:42:46;;;;;;;7.38;3.85;;;;;;;4.75;61.98;98691.59;4960371;28;126187;-71
2023/01/17 07:45:14;;;;;;;8.25;4.25;;;;;;;4.75;62.22;98691.59;4944595;28;124201;-70
2023/01/17 07:47:42;;;;;;;8.57;3.97;;;;;;;4.75;61.99;98694.19;4964998;28;119757;-71
2023/01/17 07:50:09;;;;;;;6.88;3.60;;;;;;;4.73;61.92;98696.06;4961143;28;120221;-71
2023/01/17 07:52:37;;;;;;;10.27;4.68;;;;;;;4.71;61.86;98690.06;4963572;28;124398;-71
2023/01/17 07:55:05;;;;;;;10.25;4.28;;;;;;;4.70;61.90;98688.38;4944421;28;124540;-71
2023/01/17 07:57:32;;;;;;;10.05;4.13;;;;;;;4.68;61.79;98691.06;4961920;28;118929;-72
2023/01/17 07:59:59;;;;;;;7.60;4.18;;;;;;;4.69;61.92;98705.03;4964826;28;118990;-72
2023/01/17 08:02:26;;;;;;;8.45;4.40;;;;;;;4.67;61.86;98704.25;4966568;28;123400;-71
2023/01/17 08:04:53;;;;;;;7.78;4.45;;;;;;;4.65;61.82;98695.63;4966686;28;123779;-72
2023/01/17 08:07:20;;;;;;;11.02;4.47;;;;;;;4.65;61.87;98700.88;4960248;28;120199;-71
2023/01/17 08:09:48;;;;;;;8.85;4.50;;;;;;;4.63;61.88;98702.72;4958023;28;119969;-71
2023/01/17 08:12:16;;;;;;;8.57;4.13;;;;;;;4.64;61.85;98704.44;4962730;28;124096;-71
2023/01/17 08:14:43;;;;;;;10.15;4.45;;;;;;;4.62;61.73;98701.06;4962701;28;124935;-71
2023/01/17 08:17:15;;;;;;;9.85;3.92;;;;;;;4.61;62.08;98694.13;4956962;28;120932;-70
2023/01/17 08:19:43;;;;;;;12.68;5.20;;;;;;;4.62;61.70;98695.81;4963842;28;118647;-70
2023/01/17 08:22:11;;;;;;;10.93;4.85;;;;;;;4.61;61.95;98694.13;4954061;28;124697;-71
2023/01/17 08:24:38;;;;;;;10.50;5.25;;;;;;;4.61;61.70;98694.13;4962621;28;124762;-71
2023/01/17 08:27:07;;;;;;;10.40;4.90;;;;;;;4.60;61.75;98698.53;4956815;28;120652;-70
2023/01/17 08:29:35;;;;;;;10.60;5.22;;;;;;;4.60;61.93;98698.53;4966104;28;118987;-71
2023/01/17 08:32:02;;;;;;;11.10;5.20;;;;;;;4.61;61.69;98704.59;4964871;28;123637;-71
2023/01/17 08:34:31;;;;;;;9.88;5.07;;;;;;;4.61;61.66;98699.34;4962666;28;125389;-71
2023/01/17 08:36:59;;;;;;;10.80;5.38;;;;;;;4.60;61.63;98700.31;4961342;28;119491;-71
2023/01/17 08:39:26;;;;;;;10.02;5.22;;;;;;;4.60;61.68;98702.94;4956382;28;118948;-72
2023/01/17 08:41:53;;;;;;;13.70;5.03;;;;;;;4.60;61.72;98698.53;4952352;28;123923;-72
2023/01/17 08:44:20;;;;;;;12.48;4.97;;;;;;;4.59;61.51;98696.81;4946740;28;123821;-71
2023/01/17 08:46:48;;;;;;;8.45;4.57;;;;;;;4.59;61.84;98701.22;4930776;28;119140;-71
2023/01/17 08:49:15;;;;;;;10.98;5.15;;;;;;;4.59;61.68;98707.31;4933887;28;118633;-71
2023/01/17 08:51:42;;;;;;;8.95;4.85;;;;;;;4.60;61.66;98697.69;4947847;28;123891;-70
2023/01/17 08:54:11;;;;;;;12.07;4.65;;;;;;;4.62;61.95;98706.31;4950222;28;123629;-71
2023/01/17 08:56:38;;;;;;;12.38;5.32;;;;;;;4.63;61.82;98713.22;4929869;28;121280;-71
2023/01/17 08:59:06;;;;;;;12.48;5.72;;;;;;;4.65;62.04;98711.34;4946667;28;121074;-71
2023/01/17 09:01:39;;;;;;;12.25;5.22;;;;;;;4.67;61.97;98709.50;4962534;28;124163;-70
2023/01/17 09:04:08;;;;;;;9.68;4.90;;;;;;;4.67;61.95;98709.50;4949752;28;124690;-71
2023/01/17 09:06:40;;;;;;;9.57;4.95;;;;;;;4.70;61.98;98716.38;4950479;28;119970;-71
2023/01/17 09:09:10;;;;;;;12.15;5.28;;;;;;;4.71;61.84;98726.78;4946371;28;118222;-70
2023/01/17 09:11:37;;;;;;;15.02;5.68;;;;;;;4.72;62.01;98717.97;4948602;28;124443;-70
2023/01/17 09:14:04;;;;;;;9.52;5.03;;;;;;;4.74;61.98;98723.97;4955611;28;124276;-70
2023/01/17 09:16:31;;;;;;;15.73;5.47;;;;;;;4.75;61.71;98725.66;4958929;28;118292;-71
2023/01/17 09:18:59;;;;;;;15.65;5.55;;;;;;;4.76;61.92;98722.09;4949280;28;119404;-70
2023/01/17 09:21:26;;;;;;;13.30;4.95;;;;;;;4.76;61.69;98724.72;4960367;28;125264;-70
2023/01/17 09:23:54;;;;;;;9.30;5.53;;;;;;;4.77;61.79;98726.44;4957257;28;123650;-71
2023/01/17 09:26:24;;;;;;;12.93;5.40;;;;;;;4.80;61.59;98736.75;4948610;28;119869;-71
2023/01/17 09:28:52;;;;;;;12.82;5.70;;;;;;;4.80;61.82;98752.50;4958085;28;118733;-71
2023/01/17 09:31:21;;;;;;;9.85;5.43;;;;;;;4.81;61.63;98741.06;4948856;28;127345;-71
2023/01/17 09:33:50;;;;;;;11.95;5.40;;;;;;;4.82;61.71;98748.00;4957556;28;123426;-71
2023/01/17 09:36:18;;;;;;;10.68;5.32;;;;;;;4.83;61.61;98752.31;4965260;28;118855;-71
2023/01/17 09:38:45;;;;;;;14.93;5.68;;;;;;;4.83;61.76;98754.94;4946864;28;118584;-69
2023/01/17 09:41:21;;;;;;;11.23;4.97;;;;;;;4.85;61.53;98754.84;4973039;28;123668;-70
2023/01/17 09:43:55;;;;;;;9.38;5.22;;;;;;;4.85;61.90;98754.84;4964974;28;123633;-70
2023/01/17 09:46:28;;;;;;;12.43;5.60;;;;;;;4.86;61.60;98756.56;4963637;28;120938;-70
2023/01/17 09:49:06;;;;;;;15.45;5.75;;;;;;;4.90;61.64;98767.69;4968892;28;119418;-70
2023/01/17 09:51:33;;;;;;;12.40;6.18;;;;;;;4.91;61.97;98761.53;4964872;28;123212;-70
2023/01/17 09:54:01;;;;;;;12.55;5.72;;;;;;;4.94;61.78;98764.00;4965354;28;123596;-70
2023/01/17 09:56:35;;;;;;;16.52;6.00;;;;;;;4.99;61.91;98761.94;4955819;28;119829;-71
2023/01/17 09:59:26;;;;;;;11.80;5.60;;;;;;;5.04;62.06;98759.91;4949822;28;117246;-70
2023/01/17 10:02:17;;;;;;;14.15;5.65;;;;;;;5.11;61.83;98765.69;4942184;28;124483;-70
2023/01/17 10:05:01;;;;;;;12.00;6.15;;;;;;;5.17;61.88;98765.31;4957611;28;125227;-70
2023/01/17 10:08:02;;;;;;;15.70;6.35;;;;;;;5.21;61.73;98762.44;4946135;28;119489;-71
2023/01/17 10:10:53;;;;;;;13.40;5.90;;;;;;;5.28;61.82;98762.09;4959315;28;118918;-71
2023/01/17 10:13:46;;;;;;;12.90;6.18;;;;;;;5.33;61.93;98757.41;4959760;28;124212;-71
2023/01/17 10:16:31;;;;;;;14.52;5.88;;;;;;;5.40;62.16;98758.75;4934229;28;123910;-70
2023/01/17 10:19:42;;;;;;;13.55;5.72;;;;;;;5.46;62.04;98750.53;4945928;28;119713;-70
2023/01/17 10:22:19;;;;;;;16.00;5.85;;;;;;;5.53;61.88;98757.13;4934946;28;121278;-70
2023/01/17 10:25:11;;;;;;;13.27;5.80;;;;;;;5.60;61.92;98753.22;4952233;28;124079;-71
2023/01/17 10:27:55;;;;;;;12.32;5.95;;;;;;;5.66;61.89;98757.25;4948187;28;123572;-70
2023/01/17 10:30:31;;;;;;;14.15;5.90;;;;;;;5.74;61.86;98754.19;4945142;28;122610;-70
2023/01/17 10:33:02;;;;;;;12.00;6.25;;;;;;;5.82;62.02;98754.56;4947213;28;118893;-70
2023/01/17 10:35:33;;;;;;;14.05;6.25;;;;;;;5.89;61.69;98760.31;4944262;28;123776;-71
2023/01/17 10:38:04;;;;;;;15.82;6.45;;;;;;;5.95;61.84;98763.47;4946310;28;123634;-70
2023/01/17 10:40:50;;;;;;;10.93;5.70;;;;;;;6.02;61.76;98750.78;4933691;28;121229;-70
2023/01/17 10:43:35;;;;;;;15.18;6.45;;;;;;;6.08;61.70;98757.47;4948464;28;119231;-70
2023/01/17 10:46:03;;;;;;;12.00;5.87;;;;;;;6.15;61.92;98759.63;4946619;28;123615;-71
2023/01/17 10:48:44;;;;;;;10.20;5.90;;;;;;;6.20;61.91;98748.84;4945942;28;124862;-71
2023/01/17 10:51:42;;;;;;;14.02;5.75;;;;;;;6.26;61.75;98750.25;4945867;28;119902;-71
2023/01/17 10:54:31;;;;;;;10.82;5.68;;;;;;;6.32;61.81;98755.97;4932992;28;119058;-71
2023/01/17 10:56:59;;;;;;;14.50;6.10;;;;;;;6.38;61.83;98755.56;4942831;28;124471;-71
2023/01/17 10:59:32;;;;;;;10.57;5.57;;;;;;;6.44;61.46;98759.63;4945928;28;125136;-71
2023/01/17 11:02:05;;;;;;;15.32;7.45;;;;;;;6.49;61.39;98748.81;4946663;28;119583;-71
2023/01/17 11:04:36;;;;;;;12.82;6.68;;;;;;;6.55;61.44;98751.06;4950011;28;118891;-71
2023/01/17 11:07:18;;;;;;;11.10;6.47;;;;;;;6.61;61.44;98750.69;4948888;28;124882;-70
2023/01/17 11:09:52;;;;;;;15.32;6.93;;;;;;;6.67;61.66;98745.06;4958654;28;123708;-71
2023/01/17 11:12:19;;;;;;;15.43;6.53;;;;;;;6.77;61.68;98750.56;4952613;28;119129;-71
2023/01/17 11:15:16;;;;;;;12.38;6.57;;;;;;;6.81;61.52;98747.66;4950254;28;119276;-70
2023/01/17 11:17:47;;;;;;;10.98;5.97;;;;;;;6.88;61.68;98747.28;4945599;28;124070;-70
2023/01/17 11:20:22;;;;;;;12.65;5.68;;;;;;;6.94;61.19;98742.44;4947776;28;123634;-71
2023/01/17 11:23:07;;;;;;;10.40;5.80;;;;;;;7.03;61.31;98741.03;4936776;28;118772;-71
2023/01/17 11:25:35;;;;;;;12.55;5.22;;;;;;;7.09;61.36;98735.34;4953084;28;120034;-71
2023/01/17 11:28:22;;;;;;;10.05;5.03;;;;;;;7.17;61.33;98730.44;4948287;28;124538;-71
2023/01/17 11:30:52;;;;;;;12.65;4.35;;;;;;;7.26;61.05;98730.78;4949257;28;123723;-71
2023/01/17 11:33:47;;;;;;;8.20;4.35;;;;;;;7.29;61.01;98730.56;4952052;28;120018;-70
2023/01/17 11:36:26;;;;;;;11.77;4.20;;;;;;;7.34;61.10;98744.28;4947841;28;120409;-70
2023/01/17 11:38:56;;;;;;;6.15;4.00;;;;;;;7.40;60.79;98743.88;4961282;28;125151;-70
2023/01/17 11:41:26;;;;;;;9.48;4.60;;;;;;;7.47;60.89;98739.91;4961110;28;125130;-70
2023/01/17 11:43:57;;;;;;;11.23;4.47;;;;;;;7.54;61.11;98741.19;4953481;28;118963;-70
2023/01/17 11:46:27;;;;;;;9.30;5.15;;;;;;;7.63;60.95;98733.59;4948669;28;119425;-70
2023/01/17 11:48:56;;;;;;;10.25;5.00;;;;;;;7.70;60.63;98729.63;4945686;28;123657;-69
2023/01/17 11:51:26;;;;;;;8.32;4.63;;;;;;;7.77;60.33;98741.44;4948828;28;122175;-70
2023/01/17 11:54:04;;;;;;;7.15;4.13;;;;;;;7.82;60.25;98728.81;4944691;28;120441;-70
2023/01/17 11:56:34;;;;;;;8.27;4.00;;;;;;;7.88;60.11;98728.38;4946336;28;119789;-70
2023/01/17 11:59:27;;;;;;;9.15;3.80;;;;;;;7.93;60.13;98730.69;4945584;28;124754;-70
2023/01/17 12:02:01;;;;;;;7.32;3.40;;;;;;;7.97;60.03;98727.75;4950077;28;123380;-70
2023/01/17 12:04:41;;;;;;;7.80;3.85;;;;;;;8.03;59.87;98730.94;4950409;28;120269;-70
2023/01/17 12:07:35;;;;;;;8.63;3.92;;;;;;;8.06;60.22;98725.44;4953294;28;119320;-70
2023/01/17 12:10:34;;;;;;;7.22;3.70;;;;;;;8.12;59.85;98725.03;4962765;28;123524;-70
2023/01/17 12:16:31;;;;;;;7.85;3.50;;;;;;;8.18;59.73;98729.88;4953452;28;120113;-71
2023/01/17 12:19:36;;;;;;;8.45;3.13;;;;;;;8.20;59.66;98722.69;4952074;28;119078;-71
2023/01/17 12:22:32;;;;;;;5.72;3.28;;;;;;;8.22;59.40;98726.06;4960420;28;123663;-70
2023/01/17 12:25:13;;;;;;;4.78;2.42;;;;;;;8.19;59.34;98726.25;4951882;28;123724;-70
2023/01/17 12:28:05;;;;;;;6.38;2.42;;;;;;;8.18;59.21;98729.88;4957098;28;121725;-70
2023/01/17 12:30:51;;;;;;;6.30;2.35;;;;;;;8.18;59.45;98724.59;4962480;28;120516;-70
2023/01/17 12:33:24;;;;;;;;;;;;;;;8.20;59.46;98725.31;4945873;28;123208;-70
2023/01/17 12:36:00;;;;;;;5.45;2.53;;;;;;;8.25;59.53;98720.59;4944606;28;124258;-69
2023/01/17 12:38:38;;;;;;;4.75;2.55;;;;;;;8.28;59.16;98720.34;4955249;28;119156;-70
2023/01/17 12:41:31;;;;;;;5.00;2.25;;;;;;;8.29;59.34;98710.66;4941805;28;118391;-70
2023/01/17 12:43:59;;;;;;;6.15;2.90;;;;;;;8.31;59.05;98709.59;4953933;28;124372;-70
2023/01/17 12:46:39;;;;;;;5.60;2.10;;;;;;;8.33;59.04;98707.69;4962930;28;125400;-70
2023/01/17 12:49:23;;;;;;;6.45;2.55;;;;;;;8.36;59.20;98707.50;4950168;28;118493;-70
2023/01/17 12:51:58;;;;;;;4.88;2.58;;;;;;;8.41;59.12;98708.97;4949032;28;118909;-70
2023/01/17 12:54:40;;;;;;;6.75;2.75;;;;;;;8.45;59.04;98710.47;4946621;28;124449;-70
2023/01/17 12:57:23;;;;;;;4.60;2.03;;;;;;;8.48;58.67;98704.97;4939049;28;125009;-70
2023/01/17 13:00:00;;;;;;;3.83;1.92;;;;;;;8.51;58.66;98704.72;4932458;28;119835;-70
2023/01/17 13:02:54;;;;;;;6.93;2.38;;;;;;;8.55;58.81;98703.56;4939233;28;119118;-70
2023/01/17 13:05:34;;;;;;;5.90;2.10;;;;;;;8.59;58.72;98712.97;4944492;28;124466;-70
2023/01/17 13:08:25;;;;;;;4.47;1.83;;;;;;;8.67;58.55;98710.63;4944373;28;124224;-70
2023/01/17 13:11:17;;;;;;;4.50;2.00;;;;;;;8.70;58.28;98710.41;4949371;28;119261;-70
2023/01/17 13:13:46;;;;;;;2.95;1.50;;;;;;;8.71;58.35;98717.34;4947179;28;118824;-70
2023/01/17 13:16:23;;;;;;;3.72;1.65;;;;;;;8.72;57.96;98708.50;4945833;28;123190;-70
2023/01/17 13:18:51;;;;;;;4.72;1.88;;;;;;;8.75;57.76;98713.53;4954473;28;123913;-70
2023/01/17 13:21:34;;;;;;;5.80;2.42;;;;;;;8.81;57.66;98711.41;4943096;28;120291;-70